Time;durP1;ratioP1;P1;durP2;ratioP2;P2;SDS_P1;SDS_P2;PMS_P1;PMS_P2;Temp;Humidity;BMP_temperature;BMP_pressure;BME280_temperature;BME280_humidity;BME280_pressure;Samples;Min_cycle;Max_cycle;Signal;HPM_P1;HPM_P2
2023/08/07 00:02:03;;;;;;;2.60;1.10;;;18.00;99.90;;;;;;5052713;28;20029;-41
2023/08/07 00:04:29;;;;;;;2.13;0.93;;;18.00;99.90;;;;;;5052604;28;20021;-40
2023/08/07 00:06:55;;;;;;;2.17;1.25;;;18.00;99.90;;;;;;5052519;28;20035;-41
2023/08/07 00:09:20;;;;;;;2.55;1.00;;;18.00;99.90;;;;;;5052210;28;20104;-41
2023/08/07 00:11:46;;;;;;;3.90;1.20;;;18.00;99.90;;;;;;5052475;28;20098;-40
2023/08/07 00:14:11;;;;;;;2.63;1.00;;;18.00;99.90;;;;;;5052338;28;20476;-42
2023/08/07 00:16:37;;;;;;;2.15;0.95;;;18.00;99.90;;;;;;5052420;28;20497;-41
2023/08/07 00:19:03;;;;;;;1.38;0.80;;;18.00;99.90;;;;;;5052173;28;20155;-41
2023/08/07 00:21:28;;;;;;;2.10;1.13;;;18.00;99.90;;;;;;5052243;28;20036;-42
2023/08/07 00:23:54;;;;;;;3.83;1.27;;;18.00;99.90;;;;;;5051959;28;20040;-41
2023/08/07 00:26:20;;;;;;;1.20;0.80;;;18.00;99.90;;;;;;5052286;28;20021;-42
2023/08/07 00:28:46;;;;;;;1.45;0.95;;;18.00;99.90;;;;;;5051927;28;20036;-43
2023/08/07 00:31:12;;;;;;;1.60;0.95;;;18.00;99.90;;;;;;5051994;28;20020;-41
2023/08/07 00:33:38;;;;;;;1.30;0.90;;;18.00;99.90;;;;;;5052005;28;20025;-41
2023/08/07 00:36:04;;;;;;;2.63;1.10;;;18.00;99.90;;;;;;5051984;28;20025;-43
2023/08/07 00:38:30;;;;;;;2.13;1.00;;;17.90;99.90;;;;;;5051868;28;20384;-42
2023/08/07 00:40:55;;;;;;;1.80;1.20;;;18.00;99.90;;;;;;5051769;28;20029;-41
2023/08/07 00:43:21;;;;;;;2.35;0.98;;;18.00;99.90;;;;;;5051780;28;20032;-41
2023/08/07 00:45:47;;;;;;;2.72;0.90;;;17.90;99.90;;;;;;5052040;28;20035;-43
2023/08/07 00:48:14;;;;;;;1.63;0.90;;;18.00;99.90;;;;;;5051760;28;20029;-40
2023/08/07 00:50:42;;;;;;;1.80;0.90;;;17.90;99.90;;;;;;5051598;28;20040;-43
2023/08/07 00:53:09;;;;;;;1.80;1.00;;;18.00;99.90;;;;;;5051679;28;20017;-40
2023/08/07 00:55:35;;;;;;;1.83;1.10;;;17.90;99.90;;;;;;5051761;28;20108;-41
2023/08/07 00:58:01;;;;;;;3.28;1.00;;;17.90;99.90;;;;;;5051588;28;20074;-43
2023/08/07 01:00:30;;;;;;;1.65;1.00;;;18.00;99.90;;;;;;5051371;28;20052;-41
2023/08/07 01:02:56;;;;;;;1.10;0.90;;;17.90;99.90;;;;;;5051486;28;20104;-41
2023/08/07 01:05:26;;;;;;;1.98;1.17;;;17.90;99.90;;;;;;5051462;28;20036;-40
2023/08/07 01:07:54;;;;;;;1.27;0.75;;;17.90;99.90;;;;;;5051887;28;20082;-41
2023/08/07 01:10:31;;;;;;;2.40;1.00;;;17.90;99.90;;;;;;5051200;28;20049;-42
2023/08/07 01:13:05;;;;;;;1.00;0.90;;;17.90;99.90;;;;;;5051472;28;20021;-42
2023/08/07 01:15:33;;;;;;;3.05;1.20;;;17.90;99.90;;;;;;5051492;28;20024;-40
2023/08/07 01:18:00;;;;;;;1.15;0.85;;;17.90;99.90;;;;;;5051305;28;20421;-41
2023/08/07 01:20:25;;;;;;;1.08;0.80;;;17.90;99.90;;;;;;5051157;28;20021;-41
2023/08/07 01:22:51;;;;;;;2.15;1.10;;;17.90;99.90;;;;;;5051595;28;20040;-40
2023/08/07 01:25:17;;;;;;;2.22;0.88;;;17.90;99.90;;;;;;5051331;28;20021;-41
2023/08/07 01:27:53;;;;;;;2.53;0.90;;;17.90;99.90;;;;;;5051070;28;20029;-42
2023/08/07 01:30:30;;;;;;;2.15;1.20;;;17.90;99.90;;;;;;5051002;28;20032;-40
2023/08/07 01:33:13;;;;;;;1.45;0.90;;;17.90;99.90;;;;;;5051179;28;20021;-41
2023/08/07 01:35:49;;;;;;;1.92;0.93;;;17.90;99.90;;;;;;5051135;28;20025;-42
2023/08/07 01:38:15;;;;;;;3.58;1.30;;;18.00;99.90;;;;;;5051238;28;20056;-41
2023/08/07 01:40:42;;;;;;;1.52;0.90;;;17.90;99.90;;;;;;5050946;28;20071;-43
2023/08/07 01:43:09;;;;;;;1.90;1.08;;;17.90;99.90;;;;;;5050891;28;20029;-40
2023/08/07 01:45:35;;;;;;;1.77;0.90;;;18.00;99.90;;;;;;5051049;28;20170;-43
2023/08/07 01:48:00;;;;;;;1.80;0.90;;;18.00;99.90;;;;;;5050980;28;20040;-41
2023/08/07 01:50:26;;;;;;;2.03;0.98;;;18.00;99.90;;;;;;5050836;28;20013;-40
2023/08/07 01:52:52;;;;;;;2.10;1.00;;;17.90;99.90;;;;;;5050943;28;20544;-43
2023/08/07 01:55:19;;;;;;;2.22;1.00;;;17.90;99.90;;;;;;5051282;28;20053;-43
2023/08/07 01:57:44;;;;;;;2.67;1.00;;;17.90;99.90;;;;;;5050873;28;20110;-43
2023/08/07 02:00:10;;;;;;;2.78;1.08;;;17.90;99.90;;;;;;5050743;28;20053;-41
2023/08/07 02:02:37;;;;;;;2.53;0.98;;;17.90;99.90;;;;;;5050813;28;20048;-40
2023/08/07 02:05:03;;;;;;;2.13;0.93;;;17.90;99.90;;;;;;5050995;28;20032;-41
2023/08/07 02:07:29;;;;;;;1.33;0.85;;;18.00;99.90;;;;;;5050886;28;20658;-41
2023/08/07 02:09:55;;;;;;;1.70;1.00;;;17.90;99.90;;;;;;5051069;28;20021;-41
2023/08/07 02:12:20;;;;;;;1.88;1.05;;;18.00;99.90;;;;;;5050695;28;20029;-41
2023/08/07 02:14:46;;;;;;;1.38;0.80;;;17.90;99.90;;;;;;5049377;28;20025;-41
2023/08/07 02:17:12;;;;;;;2.15;1.08;;;18.00;99.90;;;;;;5052239;28;20033;-41
2023/08/07 02:19:37;;;;;;;1.33;0.80;;;18.00;99.90;;;;;;5054722;28;20439;-41
2023/08/07 02:22:03;;;;;;;1.45;0.85;;;18.00;99.90;;;;;;5054597;28;20028;-42
2023/08/07 02:24:29;;;;;;;3.35;1.00;;;17.90;99.90;;;;;;5054336;28;20051;-42
2023/08/07 02:26:55;;;;;;;1.15;0.90;;;18.00;99.90;;;;;;5052960;28;20133;-43
2023/08/07 02:29:20;;;;;;;1.65;0.93;;;18.00;99.90;;;;;;5054179;28;20104;-40
2023/08/07 02:31:46;;;;;;;1.58;0.93;;;18.00;99.90;;;;;;5054448;28;20029;-40
2023/08/07 02:34:11;;;;;;;1.13;0.85;;;18.00;99.90;;;;;;5054408;28;20021;-44
2023/08/07 02:36:37;;;;;;;2.15;1.00;;;17.90;99.90;;;;;;5054363;28;20103;-40
2023/08/07 02:39:04;;;;;;;1.67;0.98;;;18.00;99.90;;;;;;5054089;28;20039;-41
2023/08/07 02:41:30;;;;;;;1.48;0.90;;;17.90;99.90;;;;;;5052870;28;20053;-41
2023/08/07 02:43:57;;;;;;;2.70;1.27;;;17.90;99.90;;;;;;5054124;28;20107;-40
2023/08/07 02:46:22;;;;;;;1.45;0.95;;;17.90;99.90;;;;;;5054174;28;20036;-40
2023/08/07 02:48:48;;;;;;;2.03;1.00;;;18.00;99.90;;;;;;5053862;28;20044;-42
2023/08/07 02:51:13;;;;;;;1.95;1.00;;;17.90;99.90;;;;;;5052669;28;20530;-42
2023/08/07 02:53:39;;;;;;;3.30;1.00;;;17.90;99.90;;;;;;5053929;28;20025;-40
2023/08/07 02:56:05;;;;;;;2.55;1.00;;;17.90;99.90;;;;;;5053776;28;20106;-41
2023/08/07 02:58:30;;;;;;;4.53;1.10;;;17.90;99.90;;;;;;5053907;28;20051;-43
2023/08/07 03:00:56;;;;;;;2.45;1.10;;;18.00;99.90;;;;;;5053708;28;20159;-42
2023/08/07 03:03:22;;;;;;;2.00;0.90;;;17.90;99.90;;;;;;5053708;28;20029;-44
2023/08/07 03:05:51;;;;;;;2.63;1.00;;;17.90;99.90;;;;;;5053782;28;20039;-42
2023/08/07 03:08:17;;;;;;;2.50;1.13;;;17.90;99.90;;;;;;5053723;28;20025;-42
2023/08/07 03:10:49;;;;;;;1.58;1.10;;;18.00;99.90;;;;;;5053451;28;20020;-41
2023/08/07 03:13:15;;;;;;;2.50;1.05;;;17.90;99.90;;;;;;5052653;28;20024;-41
2023/08/07 03:15:40;;;;;;;1.40;1.00;;;17.90;99.90;;;;;;5053780;28;20021;-42
2023/08/07 03:18:06;;;;;;;2.55;1.10;;;17.90;99.90;;;;;;5053615;28;20431;-41
2023/08/07 03:20:32;;;;;;;4.38;1.17;;;17.90;99.90;;;;;;5053449;28;20070;-44
2023/08/07 03:22:57;;;;;;;2.28;0.93;;;17.90;99.90;;;;;;5053609;28;20087;-42
2023/08/07 03:25:23;;;;;;;2.33;1.10;;;17.90;99.90;;;;;;5053363;28;20052;-41
2023/08/07 03:27:48;;;;;;;2.42;1.05;;;17.90;99.90;;;;;;5052779;28;20082;-42
2023/08/07 03:30:14;;;;;;;1.77;0.80;;;17.90;99.90;;;;;;5052459;28;20068;-42
2023/08/07 03:32:41;;;;;;;3.10;1.00;;;17.90;99.90;;;;;;5051872;28;20107;-41
2023/08/07 03:35:07;;;;;;;2.28;1.10;;;17.90;99.90;;;;;;5053251;28;20017;-43
2023/08/07 03:37:33;;;;;;;2.25;0.90;;;17.90;99.90;;;;;;5053106;28;20032;-42
2023/08/07 03:39:58;;;;;;;2.08;1.08;;;17.90;99.90;;;;;;5052800;28;20025;-41
2023/08/07 03:42:24;;;;;;;4.28;1.30;;;17.90;99.90;;;;;;5053103;28;20021;-42
2023/08/07 03:44:49;;;;;;;2.25;0.95;;;17.90;99.90;;;;;;5052955;28;20392;-43
2023/08/07 03:47:15;;;;;;;1.92;1.02;;;17.90;99.90;;;;;;5052978;28;20025;-40
2023/08/07 03:49:41;;;;;;;3.45;1.17;;;17.90;99.90;;;;;;5052785;28;20021;-40
2023/08/07 03:52:06;;;;;;;1.88;1.00;;;17.90;99.90;;;;;;5052776;28;20032;-40
2023/08/07 03:54:32;;;;;;;2.17;1.15;;;17.90;99.90;;;;;;5052732;28;20385;-41
2023/08/07 03:56:58;;;;;;;1.75;1.10;;;17.90;99.90;;;;;;5052818;28;20025;-41
2023/08/07 03:59:23;;;;;;;2.53;1.40;;;17.90;99.90;;;;;;5052586;28;20096;-40
2023/08/07 04:01:49;;;;;;;1.80;1.00;;;17.90;99.90;;;;;;5052708;28;20017;-39
2023/08/07 04:04:15;;;;;;;2.20;1.00;;;17.80;99.90;;;;;;5052560;28;20029;-40
2023/08/07 04:06:40;;;;;;;1.77;0.90;;;17.90;99.90;;;;;;5052570;28;20384;-41
2023/08/07 04:09:06;;;;;;;3.40;1.58;;;17.80;99.90;;;;;;5052295;28;20033;-43
2023/08/07 04:11:33;;;;;;;1.23;1.00;;;17.90;99.90;;;;;;5052586;28;20090;-41
2023/08/07 04:13:59;;;;;;;3.42;1.40;;;17.80;99.90;;;;;;5052450;28;20083;-40
2023/08/07 04:16:24;;;;;;;2.63;1.15;;;17.80;99.90;;;;;;5052456;28;20480;-42
2023/08/07 04:18:51;;;;;;;3.15;1.50;;;17.80;99.90;;;;;;5052317;28;20032;-40
2023/08/07 04:21:17;;;;;;;2.10;1.08;;;17.80;99.90;;;;;;5050953;28;20044;-41
2023/08/07 04:23:42;;;;;;;2.75;1.30;;;17.80;99.90;;;;;;5052081;28;20040;-42
2023/08/07 04:26:08;;;;;;;1.58;1.00;;;17.80;99.90;;;;;;5052379;28;20031;-40
2023/08/07 04:28:33;;;;;;;2.25;1.10;;;17.80;99.90;;;;;;5052091;28;20029;-42
2023/08/07 04:30:59;;;;;;;2.60;1.20;;;17.80;99.90;;;;;;5052020;28;20033;-42
2023/08/07 04:33:25;;;;;;;2.30;1.35;;;17.80;99.90;;;;;;5052073;28;20032;-42
2023/08/07 04:35:50;;;;;;;3.25;1.10;;;17.80;99.90;;;;;;5051991;28;20032;-41
2023/08/07 04:38:17;;;;;;;2.70;1.10;;;17.80;99.90;;;;;;5051963;28;20671;-41
2023/08/07 04:40:47;;;;;;;1.92;1.25;;;17.80;99.90;;;;;;5051795;28;20025;-42
2023/08/07 04:43:13;;;;;;;2.30;1.23;;;17.80;99.90;;;;;;5051929;28;20025;-40
2023/08/07 04:45:40;;;;;;;2.03;1.10;;;17.80;99.90;;;;;;5051863;28;20049;-40
2023/08/07 04:48:07;;;;;;;2.65;1.13;;;17.80;99.90;;;;;;5051813;28;20029;-41
2023/08/07 04:50:33;;;;;;;1.48;0.98;;;17.80;99.90;;;;;;5051457;28;20079;-41
2023/08/07 04:52:58;;;;;;;2.33;1.23;;;17.80;99.90;;;;;;5051581;28;20025;-41
2023/08/07 04:55:25;;;;;;;2.45;1.13;;;17.80;99.90;;;;;;5051695;28;20048;-41
2023/08/07 04:57:54;;;;;;;4.30;1.35;;;17.80;99.90;;;;;;5051945;28;20487;-41
2023/08/07 05:00:20;;;;;;;1.90;1.02;;;17.80;99.90;;;;;;5051473;28;20042;-42
2023/08/07 05:02:47;;;;;;;2.35;1.00;;;17.80;99.90;;;;;;5051554;28;20052;-41
2023/08/07 05:05:14;;;;;;;1.88;1.10;;;17.80;99.90;;;;;;5051470;28;20021;-41
2023/08/07 05:07:40;;;;;;;3.75;1.25;;;17.80;99.90;;;;;;5051441;28;20017;-42
2023/08/07 05:10:07;;;;;;;2.88;0.98;;;17.80;99.90;;;;;;5051310;28;20017;-41
2023/08/07 05:12:32;;;;;;;2.50;1.20;;;17.80;99.90;;;;;;5051344;28;20032;-40
2023/08/07 05:14:58;;;;;;;1.88;1.10;;;17.80;99.90;;;;;;5050370;28;20159;-41
2023/08/07 05:17:23;;;;;;;1.50;1.02;;;17.80;99.90;;;;;;5051466;28;20480;-42
2023/08/07 05:19:49;;;;;;;2.63;1.17;;;17.80;99.90;;;;;;5051029;28;20488;-42
2023/08/07 05:22:15;;;;;;;2.88;1.17;;;17.80;99.90;;;;;;5051321;28;20032;-41
2023/08/07 05:24:41;;;;;;;2.17;1.15;;;17.80;99.90;;;;;;5051136;28;20041;-41
2023/08/07 05:27:08;;;;;;;5.70;1.30;;;17.80;99.90;;;;;;5051209;28;20048;-41
2023/08/07 05:29:35;;;;;;;1.67;0.98;;;17.80;99.90;;;;;;5050959;28;20032;-43
2023/08/07 05:32:00;;;;;;;3.60;1.40;;;17.80;99.90;;;;;;5051171;28;20484;-40
2023/08/07 05:34:26;;;;;;;2.00;1.23;;;17.80;99.90;;;;;;5051003;28;20075;-40
2023/08/07 05:36:51;;;;;;;2.97;1.00;;;17.80;99.90;;;;;;5051152;28;20403;-42
2023/08/07 05:39:17;;;;;;;3.10;1.20;;;17.80;99.90;;;;;;5050973;28;20024;-42
2023/08/07 05:41:43;;;;;;;2.08;1.20;;;17.80;99.90;;;;;;5051109;28;20021;-42
2023/08/07 05:44:08;;;;;;;1.33;0.90;;;17.80;99.90;;;;;;5051070;28;20037;-41
2023/08/07 05:46:34;;;;;;;1.83;1.08;;;17.80;99.90;;;;;;5051106;28;20079;-41
2023/08/07 05:48:59;;;;;;;3.25;1.08;;;17.80;99.90;;;;;;5050644;28;20567;-40
2023/08/07 05:51:25;;;;;;;3.05;1.25;;;17.80;99.90;;;;;;5051169;28;20060;-43
2023/08/07 05:53:51;;;;;;;3.17;1.30;;;17.80;99.90;;;;;;5054993;28;20052;-41
2023/08/07 05:56:17;;;;;;;3.60;1.30;;;17.80;99.90;;;;;;5055108;28;20018;-41
2023/08/07 05:58:43;;;;;;;2.25;1.00;;;17.80;99.90;;;;;;5055071;28;20051;-40
2023/08/07 06:01:09;;;;;;;1.80;0.98;;;17.80;99.90;;;;;;5054907;28;20492;-40
2023/08/07 06:03:34;;;;;;;3.60;1.45;;;17.80;99.90;;;;;;5054835;28;20044;-42
2023/08/07 06:06:00;;;;;;;3.60;1.30;;;17.80;99.90;;;;;;5054867;28;20084;-40
2023/08/07 06:08:26;;;;;;;1.92;1.23;;;17.80;99.90;;;;;;5054740;28;20028;-40
2023/08/07 06:10:51;;;;;;;1.63;1.17;;;17.80;99.90;;;;;;5054636;28;20523;-42
2023/08/07 06:13:17;;;;;;;2.22;1.20;;;17.80;99.90;;;;;;5054709;28;20017;-41
2023/08/07 06:15:43;;;;;;;1.42;1.00;;;17.80;99.90;;;;;;5055203;28;20062;-41
2023/08/07 06:18:08;;;;;;;1.50;0.98;;;17.80;99.90;;;;;;5054547;28;20028;-40
2023/08/07 06:20:35;;;;;;;3.10;1.30;;;17.80;99.90;;;;;;5053020;28;20021;-40
2023/08/07 06:23:00;;;;;;;2.33;1.20;;;17.80;99.90;;;;;;5054444;28;20029;-40
2023/08/07 06:25:27;;;;;;;2.28;1.13;;;17.80;99.90;;;;;;5054650;28;20033;-41
2023/08/07 06:27:53;;;;;;;1.80;1.02;;;17.80;99.90;;;;;;5054426;28;20044;-39
2023/08/07 06:30:19;;;;;;;2.03;1.10;;;17.80;99.90;;;;;;5054169;28;20021;-40
2023/08/07 06:32:44;;;;;;;1.30;0.88;;;17.80;99.90;;;;;;5054296;28;20021;-41
2023/08/07 06:35:10;;;;;;;1.83;1.17;;;17.80;99.90;;;;;;5054407;28;20025;-46
2023/08/07 06:37:36;;;;;;;1.90;1.20;;;17.80;99.90;;;;;;5054362;28;20029;-42
2023/08/07 06:40:02;;;;;;;1.80;1.15;;;17.80;99.90;;;;;;5054080;28;20025;-41
2023/08/07 06:42:28;;;;;;;2.80;1.30;;;17.80;99.90;;;;;;5054189;28;20017;-40
2023/08/07 06:44:53;;;;;;;2.60;1.00;;;17.80;99.90;;;;;;5054196;28;20445;-40
2023/08/07 06:47:19;;;;;;;6.10;1.40;;;17.80;99.90;;;;;;5053888;28;20107;-41
2023/08/07 06:49:44;;;;;;;3.90;1.40;;;17.60;99.90;;;;;;5053912;28;20028;-43
2023/08/07 06:52:10;;;;;;;4.72;1.30;;;17.40;99.90;;;;;;5054118;28;20025;-39
2023/08/07 06:54:36;;;;;;;2.97;1.45;;;17.30;99.90;;;;;;5053952;28;20104;-44
2023/08/07 06:57:01;;;;;;;2.88;1.42;;;17.20;99.90;;;;;;5054041;28;20049;-42
2023/08/07 06:59:27;;;;;;;5.50;1.65;;;17.30;99.90;;;;;;5053796;28;20060;-41
2023/08/07 07:01:52;;;;;;;4.25;1.40;;;17.30;99.90;;;;;;5053825;28;20543;-42
2023/08/07 07:04:18;;;;;;;4.85;1.30;;;17.30;99.90;;;;;;5053530;28;20050;-44
2023/08/07 07:06:44;;;;;;;3.88;1.45;;;17.40;99.90;;;;;;5054344;28;20064;-43
2023/08/07 07:09:09;;;;;;;4.68;1.30;;;17.40;99.90;;;;;;5053651;28;20029;-42
2023/08/07 07:11:35;;;;;;;3.22;1.45;;;17.50;99.90;;;;;;5053881;28;20021;-43
2023/08/07 07:14:01;;;;;;;3.95;1.50;;;17.50;99.90;;;;;;5053597;28;20021;-42
2023/08/07 07:16:26;;;;;;;3.50;1.52;;;17.50;99.90;;;;;;5053527;28;20529;-42
2023/08/07 07:18:55;;;;;;;3.75;1.58;;;17.50;99.90;;;;;;5053437;28;20029;-39
2023/08/07 07:21:21;;;;;;;3.53;1.27;;;17.60;99.90;;;;;;5053466;28;20024;-40
2023/08/07 07:23:47;;;;;;;3.47;1.33;;;17.60;99.90;;;;;;5054305;28;20040;-41
2023/08/07 07:26:12;;;;;;;2.35;1.52;;;17.60;99.90;;;;;;5053495;28;20392;-39
2023/08/07 07:28:38;;;;;;;2.50;1.17;;;17.60;99.90;;;;;;5053346;28;20029;-47
2023/08/07 07:31:04;;;;;;;2.80;1.30;;;17.70;99.90;;;;;;5053010;28;20099;-41
2023/08/07 07:33:30;;;;;;;5.80;1.40;;;17.70;99.90;;;;;;5053276;28;20024;-43
2023/08/07 07:35:56;;;;;;;2.08;1.00;;;17.70;99.90;;;;;;5053242;28;20017;-41
2023/08/07 07:38:22;;;;;;;2.85;1.20;;;17.70;99.90;;;;;;5053186;28;20017;-42
2023/08/07 07:40:47;;;;;;;3.13;1.35;;;17.70;99.90;;;;;;5053138;28;20032;-42
2023/08/07 07:43:13;;;;;;;3.63;1.50;;;17.70;99.90;;;;;;5053037;28;20112;-42
2023/08/07 07:45:39;;;;;;;2.45;1.30;;;17.80;99.90;;;;;;5052977;28;20037;-40
2023/08/07 07:48:06;;;;;;;3.88;1.55;;;17.80;99.90;;;;;;5052972;28;20086;-41
2023/08/07 07:50:32;;;;;;;2.22;1.10;;;17.80;99.90;;;;;;5052785;28;20115;-41
2023/08/07 07:52:57;;;;;;;2.17;1.17;;;17.80;99.90;;;;;;5068306;28;20033;-43
2023/08/07 07:55:25;;;;;;;4.90;1.40;;;17.80;99.90;;;;;;5052893;28;20025;-43
2023/08/07 07:57:51;;;;;;;2.85;1.45;;;17.90;99.90;;;;;;5052813;28;20121;-41
2023/08/07 08:00:17;;;;;;;2.33;1.33;;;17.90;99.90;;;;;;5052448;28;20514;-41
2023/08/07 08:02:43;;;;;;;3.55;1.33;;;17.90;99.90;;;;;;5052683;28;20066;-42
2023/08/07 08:05:10;;;;;;;3.03;1.30;;;17.90;99.90;;;;;;5053069;28;20028;-43
2023/08/07 08:07:38;;;;;;;3.72;1.17;;;17.90;99.90;;;;;;5052791;28;20059;-41
2023/08/07 08:10:06;;;;;;;2.17;1.17;;;17.90;99.90;;;;;;5052619;28;20049;-42
2023/08/07 08:12:32;;;;;;;2.72;1.45;;;17.90;99.90;;;;;;5052590;28;20146;-43
2023/08/07 08:14:58;;;;;;;3.65;1.30;;;17.90;99.90;;;;;;5051932;28;20468;-42
2023/08/07 08:17:23;;;;;;;2.10;1.20;;;17.90;99.90;;;;;;5052650;28;20365;-42
2023/08/07 08:19:49;;;;;;;2.40;1.10;;;18.00;99.90;;;;;;5052087;28;20043;-43
2023/08/07 08:22:15;;;;;;;2.28;1.38;;;18.00;99.90;;;;;;5052398;28;20050;-42
2023/08/07 08:24:41;;;;;;;2.60;1.10;;;18.00;99.90;;;;;;5052150;28;20029;-41
2023/08/07 08:27:06;;;;;;;2.33;1.15;;;18.00;99.90;;;;;;5052148;28;20385;-42
2023/08/07 08:29:32;;;;;;;1.95;1.00;;;18.00;99.90;;;;;;5051978;28;20033;-43
2023/08/07 08:31:58;;;;;;;2.35;1.10;;;18.00;99.90;;;;;;5052292;28;20029;-42
2023/08/07 08:34:25;;;;;;;1.45;1.20;;;18.00;99.90;;;;;;5051977;28;20021;-44
2023/08/07 08:36:51;;;;;;;2.05;1.10;;;18.10;99.90;;;;;;5052117;28;20048;-43
2023/08/07 08:39:16;;;;;;;2.40;1.25;;;18.10;99.90;;;;;;5051822;28;20469;-42
2023/08/07 08:41:47;;;;;;;1.85;1.10;;;18.10;99.90;;;;;;5051970;28;20083;-41
2023/08/07 08:44:14;;;;;;;1.63;1.10;;;18.10;99.90;;;;;;5050919;28;20434;-41
2023/08/07 08:46:42;;;;;;;2.08;1.38;;;18.10;99.90;;;;;;5051910;28;20100;-42
2023/08/07 08:49:10;;;;;;;2.70;1.40;;;18.10;99.90;;;;;;5050284;28;20400;-43
2023/08/07 08:51:36;;;;;;;1.48;1.10;;;18.10;99.90;;;;;;5051926;28;20024;-43
2023/08/07 08:54:03;;;;;;;3.05;1.05;;;18.10;99.90;;;;;;5051803;28;20033;-42
2023/08/07 08:56:30;;;;;;;3.20;1.20;;;18.10;99.90;;;;;;5051657;28;20476;-43
2023/08/07 08:58:56;;;;;;;1.67;1.00;;;18.10;99.90;;;;;;5051636;28;20472;-41
2023/08/07 09:01:22;;;;;;;1.55;0.98;;;18.10;99.90;;;;;;5051664;28;20033;-44
2023/08/07 09:03:48;;;;;;;1.63;1.10;;;18.20;99.90;;;;;;5051507;28;20104;-42
2023/08/07 09:06:14;;;;;;;3.13;1.10;;;18.10;99.90;;;;;;5051623;28;20511;-40
2023/08/07 09:08:43;;;;;;;2.63;1.02;;;18.00;99.90;;;;;;5051479;28;20119;-42
2023/08/07 09:11:11;;;;;;;2.70;1.00;;;17.90;99.90;;;;;;5051355;28;20155;-40
2023/08/07 09:13:38;;;;;;;3.03;1.02;;;17.90;99.90;;;;;;5051432;28;20474;-38
2023/08/07 09:16:07;;;;;;;2.13;1.00;;;17.90;99.90;;;;;;5051517;28;20017;-41
2023/08/07 09:18:33;;;;;;;1.25;0.90;;;17.90;99.90;;;;;;5051389;28;20021;-42
2023/08/07 09:21:00;;;;;;;2.92;1.27;;;17.90;99.90;;;;;;5051208;28;20043;-38
2023/08/07 09:23:26;;;;;;;1.67;0.95;;;17.90;99.90;;;;;;5051049;28;20048;-42
2023/08/07 09:26:05;;;;;;;1.90;0.93;;;18.00;99.90;;;;;;5049579;28;20029;-40
2023/08/07 09:28:32;;;;;;;1.67;0.90;;;18.00;99.90;;;;;;5051078;28;20056;-41
2023/08/07 09:30:58;;;;;;;1.58;1.00;;;18.00;99.90;;;;;;5051044;28;20029;-41
2023/08/07 09:33:29;;;;;;;0.93;0.75;;;18.00;99.90;;;;;;5051112;28;20021;-43
2023/08/07 09:36:02;;;;;;;1.95;0.98;;;18.00;99.90;;;;;;5051169;28;20021;-39
2023/08/07 09:38:30;;;;;;;2.97;1.20;;;18.00;99.90;;;;;;5051152;28;20028;-41
2023/08/07 09:41:03;;;;;;;1.77;1.20;;;18.10;99.90;;;;;;5050947;28;20477;-41
2023/08/07 09:43:29;;;;;;;2.33;0.93;;;18.10;99.90;;;;;;5051104;28;20043;-42
2023/08/07 09:46:05;;;;;;;1.15;0.80;;;18.10;99.90;;;;;;5050996;28;20037;-41
2023/08/07 09:48:33;;;;;;;1.40;0.80;;;18.10;99.90;;;;;;5050777;28;20044;-41
2023/08/07 09:51:03;;;;;;;1.73;0.98;;;18.10;99.90;;;;;;5050834;28;20056;-43
2023/08/07 09:53:30;;;;;;;2.28;1.08;;;18.10;99.90;;;;;;5050968;28;20048;-43
2023/08/07 09:55:56;;;;;;;2.53;1.00;;;18.10;99.90;;;;;;5050979;28;20480;-40
2023/08/07 09:58:22;;;;;;;1.75;0.90;;;18.20;99.90;;;;;;5050943;28;20032;-44
2023/08/07 10:00:48;;;;;;;1.40;0.90;;;18.10;99.90;;;;;;5050657;28;20486;-42
2023/08/07 10:03:14;;;;;;;2.72;1.20;;;18.10;99.90;;;;;;5050721;28;20117;-42
2023/08/07 10:05:42;;;;;;;1.27;0.90;;;18.20;99.90;;;;;;5051110;28;20472;-41
2023/08/07 10:08:08;;;;;;;1.90;0.85;;;18.20;99.90;;;;;;5050799;28;20070;-41
2023/08/07 10:10:36;;;;;;;1.75;0.90;;;18.20;99.90;;;;;;5050610;28;20032;-41
2023/08/07 10:13:02;;;;;;;1.88;0.90;;;18.20;99.90;;;;;;5050747;28;20035;-40
2023/08/07 10:15:31;;;;;;;1.38;0.82;;;18.20;99.90;;;;;;5050748;28;20029;-42
2023/08/07 10:17:57;;;;;;;2.42;1.08;;;18.20;99.90;;;;;;5050743;28;20070;-47
2023/08/07 10:20:27;;;;;;;2.40;1.20;;;18.20;99.90;;;;;;5050573;28;20098;-45
2023/08/07 10:22:53;;;;;;;3.03;1.27;;;18.20;99.90;;;;;;5050499;28;20488;-42
2023/08/07 10:25:22;;;;;;;1.65;0.93;;;18.10;99.90;;;;;;5050722;28;20063;-42
2023/08/07 10:27:51;;;;;;;2.42;1.38;;;18.10;99.90;;;;;;5050632;28;20385;-41
2023/08/07 10:30:19;;;;;;;1.75;0.85;;;18.10;99.90;;;;;;5050471;28;20022;-43
2023/08/07 10:32:46;;;;;;;2.25;1.15;;;18.10;99.90;;;;;;5050664;28;20052;-42
2023/08/07 10:35:33;;;;;;;2.35;1.20;;;18.20;99.90;;;;;;5050707;28;20020;-41
2023/08/07 10:38:11;;;;;;;2.92;0.90;;;18.20;99.90;;;;;;5051779;28;20040;-42
2023/08/07 10:41:10;;;;;;;2.00;1.00;;;18.20;99.90;;;;;;5054038;28;20025;-45
2023/08/07 10:43:43;;;;;;;3.78;1.25;;;18.20;99.90;;;;;;5031504;28;20131;-40
2023/08/07 10:46:19;;;;;;;2.15;1.50;;;18.20;99.90;;;;;;5054128;28;20029;-45
2023/08/07 10:48:49;;;;;;;1.95;0.95;;;18.20;99.90;;;;;;5054060;28;20060;-44
2023/08/07 10:51:17;;;;;;;2.72;0.93;;;18.30;99.90;;;;;;5054070;28;20037;-41
2023/08/07 10:53:45;;;;;;;3.65;1.10;;;18.30;99.90;;;;;;5054145;28;20082;-41
2023/08/07 10:56:30;;;;;;;1.63;1.23;;;18.30;99.90;;;;;;5054203;28;20025;-41
2023/08/07 10:58:56;;;;;;;1.48;0.80;;;18.30;99.90;;;;;;5053883;28;20492;-42
2023/08/07 11:01:22;;;;;;;3.40;0.90;;;18.30;99.90;;;;;;5053676;28;20100;-41
2023/08/07 11:03:50;;;;;;;1.92;0.80;;;18.30;99.90;;;;;;5053798;28;20380;-43
2023/08/07 11:06:17;;;;;;;1.35;1.00;;;18.30;99.90;;;;;;5053837;28;20063;-42
2023/08/07 11:08:43;;;;;;;1.67;1.08;;;18.30;99.90;;;;;;5053636;28;20055;-42
2023/08/07 11:11:09;;;;;;;1.40;0.80;;;18.30;99.90;;;;;;5053666;28;20067;-41
2023/08/07 11:13:34;;;;;;;3.00;1.23;;;18.40;99.90;;;;;;5053543;28;20463;-43
2023/08/07 11:16:02;;;;;;;2.53;1.00;;;18.40;99.90;;;;;;5053483;28;20096;-40
2023/08/07 11:18:27;;;;;;;1.63;0.85;;;18.40;99.90;;;;;;5053631;28;20025;-42
2023/08/07 11:20:56;;;;;;;2.95;1.02;;;18.30;99.90;;;;;;5053396;28;20366;-42
2023/08/07 11:23:28;;;;;;;1.73;0.88;;;18.40;99.90;;;;;;5053343;28;20040;-41
2023/08/07 11:25:54;;;;;;;1.60;0.90;;;18.30;99.90;;;;;;5053481;28;20477;-41
2023/08/07 11:28:21;;;;;;;1.45;0.90;;;18.40;99.90;;;;;;5053736;28;20163;-42
2023/08/07 11:30:52;;;;;;;1.85;0.90;;;18.40;99.90;;;;;;5053249;28;20021;-42
2023/08/07 11:33:19;;;;;;;1.55;1.00;;;18.40;99.90;;;;;;5053321;28;20021;-46
2023/08/07 11:35:45;;;;;;;1.02;0.80;;;18.40;99.90;;;;;;5053605;28;20021;-40
2023/08/07 11:38:11;;;;;;;1.35;0.90;;;18.40;99.90;;;;;;5053315;28;20029;-42
2023/08/07 11:40:36;;;;;;;1.13;0.90;;;18.40;99.90;;;;;;5053518;28;20528;-40
2023/08/07 11:43:02;;;;;;;1.88;1.10;;;18.40;99.90;;;;;;5052983;28;20480;-45
2023/08/07 11:45:31;;;;;;;1.75;1.08;;;18.40;99.90;;;;;;5053109;28;20036;-42
2023/08/07 11:47:59;;;;;;;4.25;1.27;;;18.40;99.90;;;;;;5053042;28;20381;-40
2023/08/07 11:50:27;;;;;;;2.65;1.10;;;18.40;99.90;;;;;;5051835;28;20029;-42
2023/08/07 11:52:53;;;;;;;2.03;1.00;;;18.40;99.90;;;;;;5052889;28;20079;-40
2023/08/07 11:55:19;;;;;;;1.45;0.90;;;18.40;99.90;;;;;;5053042;28;20029;-40
2023/08/07 11:57:47;;;;;;;2.35;0.80;;;18.30;99.90;;;;;;5052773;28;20067;-42
2023/08/07 12:00:14;;;;;;;2.45;1.00;;;18.40;99.90;;;;;;5052626;28;20048;-41
2023/08/07 12:02:46;;;;;;;1.13;0.88;;;18.40;99.90;;;;;;5052738;28;20029;-41
2023/08/07 12:05:12;;;;;;;2.90;1.13;;;18.30;99.90;;;;;;5051604;28;20029;-43
2023/08/07 12:07:39;;;;;;;1.30;1.05;;;18.30;99.90;;;;;;5052612;28;20029;-39
2023/08/07 12:10:11;;;;;;;1.60;1.10;;;18.30;99.90;;;;;;5052454;28;20025;-42
2023/08/07 12:12:37;;;;;;;1.83;0.95;;;18.30;99.90;;;;;;5052642;28;20104;-43
2023/08/07 12:15:07;;;;;;;2.35;1.15;;;18.30;99.90;;;;;;5052685;28;20021;-42
2023/08/07 12:17:33;;;;;;;1.30;1.00;;;18.30;99.90;;;;;;5052514;28;20444;-42
2023/08/07 12:19:59;;;;;;;1.88;1.10;;;18.30;99.90;;;;;;5052256;28;20052;-42
2023/08/07 12:22:28;;;;;;;3.35;1.00;;;18.30;99.90;;;;;;5052493;28;20654;-42
2023/08/07 12:24:54;;;;;;;2.22;1.00;;;18.30;99.90;;;;;;5052417;28;20418;-42
2023/08/07 12:27:20;;;;;;;1.92;0.95;;;18.30;99.90;;;;;;5052195;28;20025;-43
2023/08/07 12:29:46;;;;;;;1.13;0.90;;;18.30;99.90;;;;;;5052408;28;20036;-41
2023/08/07 12:32:11;;;;;;;1.58;0.95;;;18.30;99.90;;;;;;5052252;28;20047;-41
2023/08/07 12:34:40;;;;;;;3.70;1.13;;;18.30;99.90;;;;;;5052095;28;20472;-42
2023/08/07 12:37:06;;;;;;;1.23;0.80;;;18.30;99.90;;;;;;5052142;28;20108;-42
2023/08/07 12:39:32;;;;;;;1.73;1.10;;;18.30;99.90;;;;;;5051812;28;20158;-44
2023/08/07 12:41:58;;;;;;;1.77;1.10;;;18.30;99.90;;;;;;5052074;28;20049;-49
2023/08/07 12:44:24;;;;;;;4.50;1.33;;;18.20;99.90;;;;;;5052057;28;20041;-45
2023/08/07 12:46:49;;;;;;;2.17;1.00;;;18.10;99.90;;;;;;5051954;28;20033;-43